Forside
METAR-TAF:

METAR-TAF

Lufthavne :

Marion Municipal Airport

Marion, Ohio, USA

Breddekreds: 40-37-00N, længdekreds: 083-04-06W, højde: 303 m

Aktuelle vejr

Denne rapport blev lavet for 12 minutter siden, kl. 21:53 UTC
Vind 10 kt fra vestsydvest
Temperatur 1°C
Fugtighed 86%
Tryk 1012 hPa
Sigt: 9.7 km
Overskyet i en højde af 1100 ft
dis

METAR: KMNN 262153Z AUTO 24010KT 6SM BR OVC011 01/M01 A2987 RMK AO2 SLP127 T00111011

Tid: 17:05 (22:05 UTC)


TAF: fraværende

Vejrobservationer og prognoser fra mere end 4000 lufthavne (METAR og TAF).

De gule og røde prikker repræsenterer de meteorologiske stationer.

Flyt musen over at se navnet på stationen.

Så klik over at se vejr observationer og prognoser.

At skifte det kort: Klik på de grønne knapper med et sort kors for at zoome ind; på den grønne knap med en bindestreg for at zoome ud; eller på de grønne pile for tilstødende kort.


METAR-TAF: